createdAt,value
2022-08-20T00:01:43.782Z,6.57
2022-08-20T00:04:10.512Z,5.88
2022-08-20T00:06:39.045Z,4.93
2022-08-20T00:09:12.039Z,8.32
2022-08-20T00:11:38.804Z,5.18
2022-08-20T00:14:07.956Z,4.97
2022-08-20T00:16:38.789Z,4.70
2022-08-20T00:19:09.954Z,6.38
2022-08-20T00:21:41.428Z,7.30
2022-08-20T00:24:16.345Z,5.43
2022-08-20T00:26:52.169Z,8.52
2022-08-20T00:29:22.337Z,6.20
2022-08-20T00:31:51.541Z,5.82
2022-08-20T00:34:20.688Z,8.55
2022-08-20T00:36:50.224Z,5.07
2022-08-20T00:39:16.987Z,6.07
2022-08-20T00:41:43.768Z,6.80
2022-08-20T00:44:19.126Z,6.55
2022-08-20T00:46:51.021Z,6.97
2022-08-20T00:49:29.998Z,8.00
2022-08-20T00:52:07.626Z,6.03
2022-08-20T00:54:41.147Z,5.70
2022-08-20T00:57:14.067Z,7.55
2022-08-20T00:59:42.569Z,7.28
2022-08-20T01:02:12.964Z,7.30
2022-08-20T01:04:54.668Z,8.40
2022-08-20T01:07:31.636Z,9.95
2022-08-20T01:10:00.188Z,9.13
2022-08-20T01:12:28.899Z,9.15
2022-08-20T01:14:59.968Z,7.82
2022-08-20T01:17:32.803Z,8.75
2022-08-20T01:20:14.895Z,8.82
2022-08-20T01:23:28.228Z,8.35
2022-08-20T01:26:03.863Z,9.45
2022-08-20T01:28:50.593Z,7.72
2022-08-20T01:31:21.312Z,8.73
2022-08-20T01:33:49.382Z,8.93
2022-08-20T01:36:18.316Z,8.25
2022-08-20T01:38:54.271Z,11.60
2022-08-20T01:41:35.809Z,7.78
2022-08-20T01:44:02.870Z,7.28
2022-08-20T01:46:45.735Z,11.32
2022-08-20T01:49:36.808Z,9.93
2022-08-20T01:52:08.231Z,8.57
2022-08-20T01:54:35.789Z,9.60
2022-08-20T01:57:18.667Z,7.03
2022-08-20T01:59:45.727Z,6.32
2022-08-20T02:02:13.037Z,7.80
2022-08-20T02:04:42.464Z,7.78
2022-08-20T02:07:17.029Z,6.85
2022-08-20T02:09:44.481Z,7.47
2022-08-20T02:12:16.724Z,7.68
2022-08-20T02:17:15.698Z,7.30
2022-08-20T02:19:50.765Z,6.93
2022-08-20T02:22:39.424Z,7.93
2022-08-20T02:25:16.077Z,7.22
2022-08-20T02:27:46.856Z,8.40
2022-08-20T02:30:21.160Z,6.70
2022-08-20T02:32:58.878Z,6.83
2022-08-20T02:35:28.758Z,6.57
2022-08-20T02:37:56.053Z,9.45
2022-08-20T02:40:27.178Z,7.60
2022-08-20T02:42:58.474Z,6.10
2022-08-20T02:45:25.253Z,7.40
2022-08-20T02:48:00.366Z,6.43
2022-08-20T02:50:27.927Z,7.32
2022-08-20T02:52:56.948Z,7.22
2022-08-20T02:55:27.548Z,7.45
2022-08-20T02:58:00.039Z,6.93
2022-08-20T03:00:30.502Z,6.05
2022-08-20T03:03:04.548Z,7.72
2022-08-20T03:05:31.556Z,6.97
2022-08-20T03:08:03.004Z,7.05
2022-08-20T03:10:38.015Z,6.07
2022-08-20T03:13:14.199Z,7.18
2022-08-20T03:15:48.147Z,6.78
2022-08-20T03:18:16.433Z,8.25
2022-08-20T03:20:46.041Z,10.50
2022-08-20T03:23:16.148Z,8.20
2022-08-20T03:25:43.702Z,14.55
2022-08-20T03:28:18.144Z,15.88
2022-08-20T03:30:45.466Z,14.95
2022-08-20T03:33:12.451Z,17.50
2022-08-20T03:35:41.737Z,19.40
2022-08-20T03:38:12.683Z,21.77
2022-08-20T03:40:41.060Z,18.50
2022-08-20T03:43:15.406Z,18.23
2022-08-20T03:48:14.364Z,19.17
2022-08-20T03:50:42.350Z,20.42
2022-08-20T03:53:13.116Z,25.40
2022-08-20T03:55:54.163Z,23.40
2022-08-20T03:58:31.594Z,23.25
2022-08-20T04:01:03.618Z,23.08
2022-08-20T04:03:32.725Z,20.92
2022-08-20T04:05:59.574Z,20.10
2022-08-20T04:08:29.269Z,22.73
2022-08-20T04:11:01.506Z,20.85
2022-08-20T04:15:56.767Z,22.67
2022-08-20T04:18:25.694Z,19.23
2022-08-20T04:20:53.377Z,22.13
2022-08-20T04:23:21.486Z,21.73
2022-08-20T04:25:48.733Z,25.73
2022-08-20T04:28:30.547Z,25.45
2022-08-20T04:31:03.386Z,23.15
2022-08-20T04:33:33.935Z,23.15
2022-08-20T04:36:05.401Z,24.80
2022-08-20T04:38:48.502Z,21.92
2022-08-20T04:41:22.486Z,22.67
2022-08-20T04:44:01.141Z,22.67
2022-08-20T04:46:31.026Z,21.35
2022-08-20T04:48:58.077Z,23.63
2022-08-20T04:51:27.869Z,21.85
2022-08-20T04:53:56.173Z,20.25
2022-08-20T04:56:30.939Z,25.15
2022-08-20T04:59:00.345Z,20.77
2022-08-20T05:01:32.020Z,20.63
2022-08-20T05:03:59.510Z,22.40
2022-08-20T05:06:30.658Z,22.05
2022-08-20T05:09:03.264Z,22.67
2022-08-20T05:11:36.897Z,20.15
2022-08-20T05:14:14.485Z,20.25
2022-08-20T05:16:41.297Z,22.73
2022-08-20T05:19:12.561Z,20.27
2022-08-20T05:21:39.761Z,20.90
2022-08-20T05:24:07.261Z,19.30
2022-08-20T05:26:34.666Z,20.35
2022-08-20T05:29:06.569Z,20.15
2022-08-20T05:31:38.377Z,18.83
2022-08-20T05:34:12.468Z,23.25
2022-08-20T05:37:00.174Z,17.52
2022-08-20T05:39:27.544Z,21.58
2022-08-20T05:41:59.572Z,22.67
2022-08-20T05:44:26.265Z,21.58
2022-08-20T05:46:52.998Z,23.75
2022-08-20T05:49:28.373Z,20.20
2022-08-20T05:51:55.082Z,21.15
2022-08-20T05:54:22.317Z,20.13
2022-08-20T05:56:51.504Z,18.20
2022-08-20T05:59:24.304Z,16.83
2022-08-20T06:01:52.318Z,19.17
2022-08-20T06:04:25.143Z,21.52
2022-08-20T06:06:55.096Z,22.00
2022-08-20T06:09:31.290Z,17.70
2022-08-20T06:12:06.496Z,16.80
2022-08-20T06:14:33.361Z,20.30
2022-08-20T06:17:04.145Z,20.05
2022-08-20T06:19:32.230Z,18.97
2022-08-20T06:21:59.861Z,24.40
2022-08-20T06:24:26.847Z,22.42
2022-08-20T06:27:04.918Z,22.80
2022-08-20T06:29:33.245Z,19.85
2022-08-20T06:32:01.571Z,18.48
2022-08-20T06:34:30.886Z,22.40
2022-08-20T06:36:59.032Z,19.20
2022-08-20T06:39:28.438Z,21.25
2022-08-20T06:41:58.500Z,20.27
2022-08-20T06:44:25.870Z,19.77
2022-08-20T06:46:52.556Z,24.48
2022-08-20T06:49:19.308Z,22.92
2022-08-20T06:51:46.408Z,21.02
2022-08-20T06:54:18.753Z,19.90
2022-08-20T06:56:45.422Z,19.38
2022-08-20T06:59:12.136Z,20.40
2022-08-20T07:01:38.854Z,20.55
2022-08-20T07:04:07.470Z,18.75
2022-08-20T07:06:34.392Z,21.15
2022-08-20T07:09:01.145Z,21.52
2022-08-20T07:11:28.938Z,18.25
2022-08-20T07:13:58.028Z,15.80
2022-08-20T07:16:25.233Z,19.90
2022-08-20T07:18:51.946Z,24.75
2022-08-20T07:21:18.631Z,21.92
2022-08-20T07:23:45.361Z,18.35
2022-08-20T07:26:13.051Z,22.35
2022-08-20T07:28:39.870Z,17.02
2022-08-20T07:31:25.907Z,18.65
2022-08-20T07:33:53.806Z,20.33
2022-08-20T07:36:20.840Z,23.48
2022-08-20T07:38:51.163Z,18.45
2022-08-20T07:41:19.373Z,20.27
2022-08-20T07:43:47.318Z,16.58
2022-08-20T07:46:16.485Z,18.95
2022-08-20T07:48:49.582Z,18.38
2022-08-20T07:51:19.049Z,20.70
2022-08-20T07:53:49.689Z,21.88
2022-08-20T07:56:21.364Z,22.52
2022-08-20T07:58:52.124Z,21.05
2022-08-20T08:01:25.481Z,20.75
2022-08-20T08:03:52.813Z,20.55
2022-08-20T08:06:30.392Z,17.50
2022-08-20T08:09:01.533Z,20.58
2022-08-20T08:11:28.294Z,22.40
2022-08-20T08:13:55.042Z,23.63
2022-08-20T08:16:22.013Z,24.85
2022-08-20T08:18:53.481Z,22.58
2022-08-20T08:21:22.292Z,20.50
2022-08-20T08:23:50.076Z,19.98
2022-08-20T08:26:19.128Z,25.23
2022-08-20T08:28:46.663Z,18.92
2022-08-20T08:31:14.583Z,20.95
2022-08-20T08:33:43.944Z,21.40
2022-08-20T08:36:14.388Z,20.77
2022-08-20T08:38:44.300Z,20.70
2022-08-20T08:41:31.748Z,20.85
2022-08-20T08:44:10.914Z,19.75
2022-08-20T08:46:48.274Z,17.98
2022-08-20T08:49:19.834Z,20.90
2022-08-20T08:51:56.219Z,23.08
2022-08-20T08:54:27.382Z,21.42
2022-08-20T08:56:54.625Z,20.27
2022-08-20T08:59:25.320Z,21.73
2022-08-20T09:02:00.031Z,20.40
2022-08-20T09:04:35.879Z,17.88
2022-08-20T09:07:07.481Z,22.20
2022-08-20T09:09:43.401Z,21.83
2022-08-20T09:12:18.774Z,18.52
2022-08-20T09:14:47.927Z,18.55
2022-08-20T09:17:15.962Z,19.55
2022-08-20T09:19:42.672Z,20.45
2022-08-20T09:22:11.671Z,19.52
2022-08-20T09:24:40.281Z,16.63
2022-08-20T09:27:09.932Z,22.98
2022-08-20T09:29:41.263Z,24.10
2022-08-20T09:32:20.897Z,19.13
2022-08-20T09:34:52.010Z,18.92
2022-08-20T09:37:19.594Z,15.82
2022-08-20T09:39:47.987Z,22.40
2022-08-20T09:42:19.643Z,23.13
2022-08-20T09:44:47.038Z,21.83
2022-08-20T09:47:16.613Z,22.75
2022-08-20T09:49:44.027Z,22.73
2022-08-20T09:52:32.914Z,23.00
2022-08-20T09:55:05.695Z,20.42
2022-08-20T09:57:32.497Z,24.75
2022-08-20T10:00:02.286Z,19.58
2022-08-20T10:02:39.352Z,24.58
2022-08-20T10:05:06.748Z,27.45
2022-08-20T10:07:38.921Z,22.92
2022-08-20T10:10:07.702Z,21.00
2022-08-20T10:12:34.365Z,21.98
2022-08-20T10:15:01.070Z,22.17
2022-08-20T10:17:27.740Z,22.63
2022-08-20T10:19:54.446Z,24.38
2022-08-20T10:22:21.129Z,19.52
2022-08-20T10:24:47.825Z,23.00
2022-08-20T10:27:14.505Z,24.90
2022-08-20T10:29:46.256Z,20.20
2022-08-20T10:34:43.565Z,24.13
2022-08-20T10:37:14.504Z,21.33
2022-08-20T10:39:41.228Z,22.15
2022-08-20T10:42:07.992Z,23.50
2022-08-20T10:44:34.864Z,22.92
2022-08-20T10:47:18.201Z,21.00
2022-08-20T10:49:45.077Z,18.92
2022-08-20T10:52:11.752Z,20.63
2022-08-20T10:54:42.085Z,21.27
2022-08-20T10:57:13.356Z,19.42
2022-08-20T10:59:42.001Z,21.55
2022-08-20T11:02:09.421Z,17.88
2022-08-20T11:04:36.513Z,14.30
2022-08-20T11:07:15.357Z,15.73
2022-08-20T11:09:44.231Z,15.45
2022-08-20T11:12:11.657Z,19.25
2022-08-20T11:14:38.750Z,15.98
2022-08-20T11:17:05.905Z,16.67
2022-08-20T11:19:33.483Z,14.30
2022-08-20T11:22:00.198Z,15.75
2022-08-20T11:24:26.893Z,13.05
2022-08-20T11:26:53.838Z,13.43
2022-08-20T11:29:22.477Z,14.02
2022-08-20T11:31:49.315Z,11.65
2022-08-20T11:34:16.052Z,14.02
2022-08-20T11:36:44.130Z,14.07
2022-08-20T11:39:11.195Z,11.98
2022-08-20T11:41:38.060Z,12.60
2022-08-20T11:44:20.915Z,12.20
2022-08-20T11:46:48.586Z,13.10
2022-08-20T11:49:17.733Z,13.45
2022-08-20T11:51:49.467Z,11.02
2022-08-20T11:54:17.450Z,12.27
2022-08-20T11:56:45.919Z,12.95
2022-08-20T11:59:13.684Z,9.20
2022-08-20T12:01:40.375Z,9.07
2022-08-20T12:04:07.330Z,10.48
2022-08-20T12:06:34.084Z,10.60
2022-08-20T12:09:00.857Z,12.43
2022-08-20T12:11:27.668Z,9.85
2022-08-20T12:13:54.336Z,14.65
2022-08-20T12:16:21.185Z,12.43
2022-08-20T12:18:48.557Z,9.30
2022-08-20T12:21:17.587Z,11.05
2022-08-20T12:23:44.763Z,11.25
2022-08-20T12:26:11.841Z,13.98
2022-08-20T12:28:38.579Z,12.00
2022-08-20T12:31:05.464Z,11.90
2022-08-20T12:33:32.205Z,10.10
2022-08-20T12:35:59.244Z,11.65
2022-08-20T12:38:26.215Z,8.68
2022-08-20T12:40:54.651Z,8.68
2022-08-20T12:43:24.825Z,8.45
2022-08-20T12:45:52.083Z,9.32
2022-08-20T12:48:20.722Z,9.88
2022-08-20T12:50:49.822Z,9.00
2022-08-20T12:53:18.897Z,8.50
2022-08-20T12:55:48.832Z,7.40
2022-08-20T12:58:18.150Z,9.80
2022-08-20T13:00:50.385Z,8.88
2022-08-20T13:03:20.990Z,9.20
2022-08-20T13:05:48.793Z,9.82
2022-08-20T13:08:19.034Z,10.85
2022-08-20T13:10:50.529Z,9.68
2022-08-20T13:13:21.007Z,10.68
2022-08-20T13:15:53.673Z,9.57
2022-08-20T13:18:20.966Z,8.55
2022-08-20T13:20:51.216Z,10.10
2022-08-20T13:23:22.806Z,10.77
2022-08-20T13:25:52.043Z,8.98
2022-08-20T13:28:18.751Z,10.32
2022-08-20T13:30:45.437Z,9.63
2022-08-20T13:33:12.222Z,7.88
2022-08-20T13:35:39.028Z,9.23
2022-08-20T13:38:06.109Z,8.45
2022-08-20T13:40:35.453Z,11.02
2022-08-20T13:43:12.138Z,9.65
2022-08-20T13:45:40.415Z,7.75
2022-08-20T13:48:12.431Z,7.28
2022-08-20T13:50:42.148Z,7.95
2022-08-20T13:53:08.831Z,10.13
2022-08-20T13:55:38.542Z,7.47
2022-08-20T13:58:07.963Z,8.07
2022-08-20T14:00:35.188Z,9.85
2022-08-20T14:03:03.993Z,8.18
2022-08-20T14:05:32.496Z,8.52
2022-08-20T14:08:18.261Z,8.85
2022-08-20T14:10:47.156Z,8.20
2022-08-20T14:13:20.282Z,9.68
2022-08-20T14:15:47.118Z,6.75
2022-08-20T14:18:14.937Z,8.20
2022-08-20T14:20:42.279Z,6.53
2022-08-20T14:23:12.134Z,6.53
2022-08-20T14:25:38.831Z,7.55
2022-08-20T14:28:11.213Z,6.85
2022-08-20T14:30:38.007Z,6.15
2022-08-20T14:33:04.720Z,6.57
2022-08-20T14:35:31.668Z,7.13
2022-08-20T14:38:01.300Z,7.13
2022-08-20T14:40:33.315Z,9.70
2022-08-20T14:43:00.432Z,6.57
2022-08-20T14:45:27.161Z,8.15
2022-08-20T14:47:57.785Z,7.00
2022-08-20T14:50:33.184Z,9.95
2022-08-20T14:53:00.967Z,8.40
2022-08-20T14:55:30.981Z,5.75
2022-08-20T14:57:58.349Z,6.78
2022-08-20T15:00:29.113Z,6.63
2022-08-20T15:02:56.453Z,7.93
2022-08-20T15:05:23.899Z,7.47
2022-08-20T15:07:53.791Z,7.85
2022-08-20T15:10:32.643Z,8.50
2022-08-20T15:13:00.260Z,7.18
2022-08-20T15:15:27.396Z,7.78
2022-08-20T15:17:57.573Z,7.28
2022-08-20T15:20:27.144Z,6.50
2022-08-20T15:22:54.299Z,7.18
2022-08-20T15:25:36.004Z,10.32
2022-08-20T15:28:06.275Z,6.45
2022-08-20T15:30:33.350Z,7.70
2022-08-20T15:33:00.375Z,6.90
2022-08-20T15:35:28.768Z,5.65
2022-08-20T15:37:57.263Z,6.20
2022-08-20T15:40:28.187Z,7.03
2022-08-20T15:42:55.353Z,5.97
2022-08-20T15:45:22.424Z,6.93
2022-08-20T15:48:02.380Z,6.03
2022-08-20T15:51:02.834Z,5.70
2022-08-20T15:53:39.977Z,4.55
2022-08-20T15:56:15.549Z,6.38
2022-08-20T15:59:06.947Z,6.78
2022-08-20T16:01:47.852Z,4.20
2022-08-20T16:04:23.739Z,3.87
2022-08-20T16:06:54.898Z,7.80
2022-08-20T16:09:52.509Z,7.78
2022-08-20T16:12:38.231Z,4.40
2022-08-20T16:15:11.375Z,3.35
2022-08-20T16:17:45.685Z,8.98
2022-08-20T16:20:21.445Z,4.10
2022-08-20T16:22:48.553Z,4.05
2022-08-20T16:25:16.917Z,5.35
2022-08-20T16:27:53.444Z,4.82
2022-08-20T16:30:46.770Z,4.80
2022-08-20T16:33:22.747Z,4.93
2022-08-20T16:36:26.454Z,3.92
2022-08-20T16:39:05.920Z,2.90
2022-08-20T16:41:42.867Z,6.40
2022-08-20T16:44:31.465Z,4.88
2022-08-20T16:47:14.340Z,3.80
2022-08-20T16:49:49.085Z,5.22
2022-08-20T16:52:16.068Z,2.72
2022-08-20T16:54:44.634Z,4.22
2022-08-20T16:57:17.217Z,4.82
2022-08-20T16:59:59.126Z,4.13
2022-08-20T17:02:26.810Z,6.00
2022-08-20T17:04:58.859Z,3.80
2022-08-20T17:07:52.819Z,4.20
2022-08-20T17:10:35.709Z,4.18
2022-08-20T17:13:28.519Z,4.45
2022-08-20T17:16:20.834Z,3.05
2022-08-20T17:18:53.069Z,3.65
2022-08-20T17:21:25.880Z,4.43
2022-08-20T17:24:02.034Z,2.47
2022-08-20T17:26:35.108Z,4.63
2022-08-20T17:29:12.762Z,4.95
2022-08-20T17:31:42.893Z,3.58
2022-08-20T17:34:19.280Z,3.72
2022-08-20T17:36:59.506Z,4.05
2022-08-20T17:39:28.108Z,3.95
2022-08-20T17:42:05.854Z,3.65
2022-08-20T17:44:37.012Z,5.38
2022-08-20T17:47:12.460Z,4.83
2022-08-20T17:50:01.228Z,4.75
2022-08-20T17:52:36.116Z,3.70
2022-08-20T17:55:04.704Z,4.30
2022-08-20T17:57:38.185Z,3.17
2022-08-20T18:00:14.635Z,3.63
2022-08-20T18:02:42.218Z,3.10
2022-08-20T18:05:18.888Z,4.15
2022-08-20T18:08:08.500Z,4.88
2022-08-20T18:10:42.665Z,4.82
2022-08-20T18:13:20.728Z,3.75
2022-08-20T18:15:53.972Z,5.32
2022-08-20T18:18:56.478Z,3.53
2022-08-20T18:21:43.918Z,4.57
2022-08-20T18:24:20.974Z,2.70
2022-08-20T18:26:56.712Z,5.47
2022-08-20T18:29:33.790Z,5.93
2022-08-20T18:32:26.501Z,6.15
2022-08-20T18:34:53.595Z,3.88
2022-08-20T18:37:25.333Z,6.10
2022-08-20T18:39:52.144Z,4.93
2022-08-20T18:42:34.500Z,8.00
2022-08-20T18:47:48.316Z,4.72
2022-08-20T18:50:39.189Z,6.05
2022-08-20T18:53:14.719Z,4.43
2022-08-20T18:55:43.980Z,3.33
2022-08-20T18:58:29.590Z,6.15
2022-08-20T19:00:56.330Z,8.38
2022-08-20T19:03:31.257Z,3.90
2022-08-20T19:06:09.856Z,7.10
2022-08-20T19:08:50.952Z,3.72
2022-08-20T19:12:06.080Z,5.43
2022-08-20T19:15:07.840Z,4.27
2022-08-20T19:18:03.145Z,4.18
2022-08-20T19:20:35.737Z,5.22
2022-08-20T19:23:14.309Z,3.53
2022-08-20T19:25:59.816Z,3.83
2022-08-20T19:28:48.728Z,3.85
2022-08-20T19:31:28.330Z,4.00
2022-08-20T19:34:20.121Z,5.80
2022-08-20T19:36:58.371Z,3.78
2022-08-20T19:39:26.190Z,3.38
2022-08-20T19:42:00.803Z,5.07
2022-08-20T19:44:32.057Z,4.15
2022-08-20T19:47:00.757Z,4.13
2022-08-20T19:49:56.157Z,4.43
2022-08-20T19:52:34.505Z,4.38
2022-08-20T19:55:08.374Z,6.03
2022-08-20T19:57:35.110Z,4.03
2022-08-20T20:00:15.270Z,5.32
2022-08-20T20:02:42.033Z,6.45
2022-08-20T20:05:10.170Z,4.57
2022-08-20T20:07:44.141Z,3.40
2022-08-20T20:10:31.848Z,4.65
2022-08-20T20:13:11.128Z,4.43
2022-08-20T20:15:40.785Z,5.20
2022-08-20T20:18:09.111Z,5.50
2022-08-20T20:20:57.869Z,3.20
2022-08-20T20:23:38.602Z,5.50
2022-08-20T20:26:19.759Z,3.15
2022-08-20T20:29:02.822Z,3.15
2022-08-20T20:31:33.225Z,3.22
2022-08-20T20:34:11.374Z,3.35
2022-08-20T20:36:42.876Z,3.35
2022-08-20T20:39:31.163Z,3.23
2022-08-20T20:42:01.689Z,2.92
2022-08-20T20:44:38.830Z,5.68
2022-08-20T20:47:27.010Z,5.05
2022-08-20T20:50:00.212Z,3.65
2022-08-20T20:52:33.915Z,4.05
2022-08-20T20:55:23.167Z,5.63
2022-08-20T20:57:55.564Z,3.20
2022-08-20T21:00:29.826Z,4.30
2022-08-20T21:02:56.917Z,4.47
2022-08-20T21:05:26.313Z,3.88
2022-08-20T21:08:00.278Z,5.90
2022-08-20T21:10:34.884Z,4.75
2022-08-20T21:13:04.825Z,3.50
2022-08-20T21:15:38.370Z,4.30
2022-08-20T21:18:09.009Z,3.13
2022-08-20T21:20:38.517Z,3.33
2022-08-20T21:23:09.370Z,3.28
2022-08-20T21:25:36.659Z,3.13
2022-08-20T21:28:04.032Z,3.03
2022-08-20T21:30:33.394Z,4.60
2022-08-20T21:33:00.810Z,3.60
2022-08-20T21:35:28.179Z,3.45
2022-08-20T21:37:54.838Z,3.55
2022-08-20T21:40:22.081Z,3.53
2022-08-20T21:42:49.121Z,3.35
2022-08-20T21:45:19.501Z,4.18
2022-08-20T21:47:49.114Z,3.45
2022-08-20T21:50:19.672Z,2.85
2022-08-20T21:53:12.431Z,3.50
2022-08-20T21:55:39.547Z,4.15
2022-08-20T21:58:06.670Z,3.72
2022-08-20T22:00:53.907Z,4.93
2022-08-20T22:03:27.249Z,3.55
2022-08-20T22:05:55.353Z,3.15
2022-08-20T22:08:26.661Z,4.68
2022-08-20T22:10:59.769Z,3.85
2022-08-20T22:13:31.446Z,4.72
2022-08-20T22:16:07.726Z,3.30
2022-08-20T22:18:35.581Z,2.90
2022-08-20T22:21:06.174Z,3.65
2022-08-20T22:23:36.236Z,3.33
2022-08-20T22:26:05.425Z,3.70
2022-08-20T22:28:34.701Z,4.13
2022-08-20T22:31:04.473Z,3.70
2022-08-20T22:33:43.091Z,3.15
2022-08-20T22:36:13.004Z,3.33
2022-08-20T22:38:41.854Z,3.28
2022-08-20T22:41:10.049Z,3.13
2022-08-20T22:43:46.186Z,3.55
2022-08-20T22:46:30.256Z,3.25
2022-08-20T22:48:57.264Z,4.53
2022-08-20T22:51:38.894Z,3.35
2022-08-20T22:54:08.611Z,3.03
2022-08-20T22:56:37.494Z,3.92
2022-08-20T22:59:06.605Z,4.40
2022-08-20T23:01:35.972Z,3.58
2022-08-20T23:04:13.118Z,3.47
2022-08-20T23:06:40.090Z,2.83
2022-08-20T23:09:06.786Z,2.97
2022-08-20T23:11:33.601Z,3.13
2022-08-20T23:14:00.247Z,3.25
2022-08-20T23:16:29.358Z,3.50
2022-08-20T23:18:59.473Z,5.95
2022-08-20T23:21:28.713Z,3.78
2022-08-20T23:24:02.070Z,3.50
2022-08-20T23:26:29.149Z,3.90
2022-08-20T23:28:55.806Z,3.95
2022-08-20T23:31:22.465Z,4.68
2022-08-20T23:33:51.667Z,4.53
2022-08-20T23:36:20.396Z,5.25
2022-08-20T23:38:47.145Z,4.82
2022-08-20T23:41:15.940Z,5.53
2022-08-20T23:43:43.964Z,3.72
2022-08-20T23:46:14.205Z,3.70
2022-08-20T23:51:13.941Z,3.45
2022-08-20T23:53:40.726Z,3.47
2022-08-20T23:56:07.460Z,3.85
2022-08-20T23:58:37.062Z,6.88
